Friday, March 27, 2015
20:55 UTC
  |  Log In   |  Register Free
Airport Search:

Meyers-Diver'S Airport
(3TE)

Meyers-Diver'S Airport Diagram
No Airport Diagram Available

FAA data valid effective March 05, 2015 - April 30, 2015 (unless otherwise noted).

 
 
 
 
 
 
 
 
 
 
 
 
 
 

Current Aviation Weather for Meyers-Diver'S Airport (3TE)

METAR data is unavailable for 3TE. The nearest METAR location is at KADG (11.3 nm SW from 3TE).

The most recent METAR observation for KADG was updated at: 1407
METAR Summary (Translated METAR)
KADG
251353Z AUTO 20006KT 1 1/2SM BR OVC005 04/03 A2983 RMK AO2 RAE15 CIG 003V008 SLP112 P0000 T00390033 TSNO
(11.3 nm SW from 3TE)
KARB
251400Z 17004KT 1 1/4SM BR OVC003 03/02 A2983 RMK AO2 UPE1357 P0000 T00280022
(14.7 nm NE from 3TE)
TAF
No TAF information found within 50 nm of KADG
  Airport Weather Conditions for 3TE

Current weather conditions are
not available for 3TE


The nearest NOAA weather station
is at ADG, (11.3 nm SW from 3TE)
  
 Current Weather at ADG
26° F
Overcast
Northwest winds at 11.5 mph
ADG NOAA Radar

Pressure: 30.04 in
Humidity: 44%
Wind: Northwest at 11.5 MPH (10 KT)
Dew Point: 7.0°F
Visibility: 10.00 mi


Airport Weather Forecast for 3TE

Translated METAR and TAF for KADG
Translated METAR for KADG (2055 UTC 27 March 2015)
found at http://aviationweather.gov/adds/metars/
 
METAR text: KADG 271953Z AUTO 33010KT 10SM OVC055 M03/M14 A3004 RMK AO2 SLP184 T10331139 TSNO
Conditions at: KADG (ADRIAN , MI, US) observed 1953 UTC 27 March 2015
Temperature: -3.3°C (26°F)
Dewpoint: -13.9°C (7°F) [RH = 44%]
Pressure (altimeter): 30.04 inches Hg (1017.4 mb)
[Sea-level pressure: 1018.4 mb]
Winds: from the NNW (330 degrees) at 12 MPH (10 knots; 5.2 m/s)
Visibility: 10 or more miles (16+ km)
Ceiling: 5500 feet AGL
Clouds: overcast cloud deck at 5500 feet AGL
Weather: automated observation with no human augmentation;
there may or may not be significant weather present at this time
Translated TAF for KADG

There is no translated TAF available for this airport

Find All Airport Services Find A Hotel Find A Rental Car Find A Golf Course Find A Restaurant $100 Hamburger



FBO's on the Field
FBO Company Facility Photos Services Transportation Aviation Fuel Prices: Prices include tax
Catering Weather Repair Courtesy Rental Type 100LL JetA JetA+ MOGAS 8087
 
Add another FBO Facility Photos Catering Weather Repair Courtesy Rental Type 100LL JetA JetA+ MOGAS 8087
Services Transportation Aviation Fuel Prices: Prices include tax
There are no FBO's currently reporting fuel at 3TE. List your FBO now


model-print
model-print
model-print
model-print